Time,TemperatureF,DewpointF,PressureIn,WindDirection,WindDirectionDegrees,WindSpeedMPH,WindSpeedGustMPH,Humidity,HourlyPrecipIn,Conditions,Clouds,dailyrainin,SolarRadiationWatts/m^2,SoftwareType,DateUTC
2013-12-29 00:02:00,26.0,14.0,-100.00,ENE,77,3.0,7.0,61,0.00,,,0.00,0.000000,,2013-12-29 07:02:00,
2013-12-29 00:11:00,26.0,14.0,-100.00,ENE,77,3.0,7.0,61,0.00,,,0.00,0.000000,,2013-12-29 07:11:00,
2013-12-29 00:42:00,25.0,15.0,-100.00,SSE,147,5.0,7.0,64,0.00,,,0.00,0.000000,,2013-12-29 07:42:00,
2013-12-29 00:52:00,25.0,15.0,-100.00,SSE,147,5.0,7.0,64,0.00,,,0.00,0.000000,,2013-12-29 07:52:00,
2013-12-29 01:02:00,25.0,15.0,-100.00,SSE,147,5.0,7.0,64,0.00,,,0.00,0.000000,,2013-12-29 08:02:00,
2013-12-29 01:11:00,25.0,15.0,-100.00,SSE,147,5.0,7.0,64,0.00,,,0.00,0.000000,,2013-12-29 08:11:00,
2013-12-29 01:12:00,25.0,14.0,-100.00,South,189,5.0,7.0,63,0.00,,,0.00,0.000000,,2013-12-29 08:12:00,
2013-12-29 01:42:00,25.0,14.0,-100.00,South,189,5.0,7.0,63,0.00,,,0.00,0.000000,,2013-12-29 08:42:00,
2013-12-29 01:52:00,25.0,14.0,-100.00,South,189,5.0,7.0,63,0.00,,,0.00,0.000000,,2013-12-29 08:52:00,
2013-12-29 02:01:00,25.0,14.0,-100.00,South,189,5.0,7.0,63,0.00,,,0.00,0.000000,,2013-12-29 09:01:00,
2013-12-29 02:12:00,25.0,14.0,-100.00,SSE,152,4.0,7.0,63,0.00,,,0.00,0.000000,,2013-12-29 09:12:00,
2013-12-29 02:43:00,25.0,14.0,-100.00,SSE,152,4.0,7.0,63,0.00,,,0.00,0.000000,,2013-12-29 09:43:00,
2013-12-29 02:53:00,25.0,14.0,-100.00,SSE,152,4.0,7.0,63,0.00,,,0.00,0.000000,,2013-12-29 09:53:00,
2013-12-29 03:03:00,25.0,14.0,-100.00,SSE,152,4.0,7.0,63,0.00,,,0.00,0.000000,,2013-12-29 10:03:00,
2013-12-29 03:12:00,25.0,15.0,-100.00,SSE,151,4.0,6.0,65,0.00,,,0.00,0.000000,,2013-12-29 10:12:00,
2013-12-29 03:43:00,25.0,15.0,-100.00,SSE,151,4.0,6.0,65,0.00,,,0.00,0.000000,,2013-12-29 10:43:00,
2013-12-29 03:53:00,25.0,15.0,-100.00,SSE,151,4.0,6.0,65,0.00,,,0.00,0.000000,,2013-12-29 10:53:00,
2013-12-29 04:02:00,25.0,15.0,-100.00,SSE,151,4.0,6.0,65,0.00,,,0.00,0.000000,,2013-12-29 11:02:00,
2013-12-29 04:42:00,24.0,15.0,-100.00,North,354,2.0,4.0,67,0.00,,,0.00,0.000000,,2013-12-29 11:42:00,
2013-12-29 04:53:00,24.0,15.0,-100.00,North,354,2.0,4.0,67,0.00,,,0.00,0.000000,,2013-12-29 11:53:00,
2013-12-29 05:02:00,24.0,15.0,-100.00,North,354,2.0,4.0,67,0.00,,,0.00,0.000000,,2013-12-29 12:02:00,
2013-12-29 05:11:00,24.0,15.0,-100.00,North,354,2.0,4.0,67,0.00,,,0.00,0.000000,,2013-12-29 12:11:00,
2013-12-29 05:42:00,24.0,15.0,-100.00,NNE,23,3.0,5.0,67,0.00,,,0.00,0.000000,,2013-12-29 12:42:00,
2013-12-29 05:52:00,24.0,15.0,-100.00,NNE,23,3.0,5.0,67,0.00,,,0.00,0.000000,,2013-12-29 12:52:00,
2013-12-29 06:02:00,24.0,15.0,-100.00,NNE,23,3.0,5.0,67,0.00,,,0.00,0.000000,,2013-12-29 13:02:00,
2013-12-29 06:11:00,24.0,15.0,-100.00,NNE,23,3.0,5.0,67,0.00,,,0.00,0.000000,,2013-12-29 13:11:00,
2013-12-29 06:42:00,24.0,15.0,-100.00,SE,125,5.0,8.0,67,0.00,,,0.00,0.000000,,2013-12-29 13:42:00,
2013-12-29 06:53:00,24.0,15.0,-100.00,SE,125,5.0,8.0,67,0.00,,,0.00,0.000000,,2013-12-29 13:53:00,
2013-12-29 07:01:00,24.0,15.0,-100.00,SE,125,5.0,8.0,67,0.00,,,0.00,0.000000,,2013-12-29 14:01:00,
2013-12-29 07:11:00,24.0,15.0,-100.00,SE,125,5.0,8.0,67,0.00,,,0.00,0.000000,,2013-12-29 14:11:00,
2013-12-29 07:42:00,23.0,14.0,-100.00,ENE,77,3.0,8.0,68,0.00,,,0.00,0.000000,,2013-12-29 14:42:00,
2013-12-29 07:52:00,23.0,14.0,-100.00,ENE,77,3.0,8.0,68,0.00,,,0.00,0.000000,,2013-12-29 14:52:00,
2013-12-29 08:02:00,23.0,14.0,-100.00,ENE,77,3.0,8.0,68,0.00,,,0.00,0.000000,,2013-12-29 15:02:00,
2013-12-29 08:11:00,23.0,14.0,-100.00,ENE,77,3.0,8.0,68,0.00,,,0.00,0.000000,,2013-12-29 15:11:00,
2013-12-29 08:12:00,25.0,16.0,-100.00,South,169,4.0,5.0,67,0.00,,,0.00,26.000000,,2013-12-29 15:12:00,
2013-12-29 08:44:00,25.0,16.0,-100.00,South,169,4.0,5.0,67,0.00,,,0.00,26.000000,,2013-12-29 15:44:00,
2013-12-29 08:53:00,25.0,16.0,-100.00,South,169,4.0,5.0,67,0.00,,,0.00,26.000000,,2013-12-29 15:53:00,
2013-12-29 09:03:00,25.0,16.0,-100.00,South,169,4.0,5.0,67,0.00,,,0.00,26.000000,,2013-12-29 16:03:00,
2013-12-29 09:12:00,32.0,17.0,-100.00,SSE,152,3.0,7.0,54,0.00,,,0.00,173.000000,,2013-12-29 16:12:00,
2013-12-29 09:43:00,32.0,17.0,-100.00,SSE,152,3.0,7.0,54,0.00,,,0.00,173.000000,,2013-12-29 16:43:00,
2013-12-29 09:53:00,32.0,17.0,-100.00,SSE,152,3.0,7.0,54,0.00,,,0.00,173.000000,,2013-12-29 16:53:00,
2013-12-29 10:02:00,32.0,17.0,-100.00,SSE,152,3.0,7.0,54,0.00,,,0.00,173.000000,,2013-12-29 17:02:00,
2013-12-29 10:42:00,33.0,19.0,-100.00,SE,145,7.0,10.0,57,0.00,,,0.00,270.000000,,2013-12-29 17:42:00,
2013-12-29 10:52:00,33.0,19.0,-100.00,SE,145,7.0,10.0,57,0.00,,,0.00,270.000000,,2013-12-29 17:52:00,
2013-12-29 11:02:00,33.0,19.0,-100.00,SE,145,7.0,10.0,57,0.00,,,0.00,270.000000,,2013-12-29 18:02:00,
2013-12-29 11:11:00,33.0,19.0,-100.00,SE,145,7.0,10.0,57,0.00,,,0.00,270.000000,,2013-12-29 18:11:00,
2013-12-29 11:42:00,38.0,21.0,-100.00,SSE,159,6.0,10.0,49,0.00,,,-99.99,406.000000,,2013-12-29 18:42:00,
2013-12-29 11:53:00,38.0,21.0,-100.00,SSE,159,6.0,10.0,49,0.00,,,-99.99,406.000000,,2013-12-29 18:53:00,
2013-12-29 12:01:00,38.0,21.0,-100.00,SSE,159,6.0,10.0,49,0.00,,,-99.99,406.000000,,2013-12-29 19:01:00,
2013-12-29 12:11:00,38.0,21.0,-100.00,SSE,159,6.0,10.0,49,0.00,,,-99.99,406.000000,,2013-12-29 19:11:00,
2013-12-29 12:43:00,37.0,18.0,-100.00,SSE,158,6.0,12.0,45,0.00,,,-99.99,489.000000,,2013-12-29 19:43:00,
2013-12-29 12:52:00,37.0,18.0,-100.00,SSE,158,6.0,12.0,45,0.00,,,-99.99,489.000000,,2013-12-29 19:52:00,
2013-12-29 13:02:00,37.0,18.0,-100.00,SSE,158,6.0,12.0,45,0.00,,,-99.99,489.000000,,2013-12-29 20:02:00,
2013-12-29 13:11:00,37.0,18.0,-100.00,SSE,158,6.0,12.0,45,0.00,,,-99.99,489.000000,,2013-12-29 20:11:00,
2013-12-29 13:42:00,40.0,18.0,-100.00,South,183,6.0,12.0,41,0.00,,,0.00,489.000000,,2013-12-29 20:42:00,
2013-12-29 13:52:00,40.0,18.0,-100.00,South,183,6.0,12.0,41,0.00,,,0.00,489.000000,,2013-12-29 20:52:00,
2013-12-29 14:02:00,40.0,18.0,-100.00,South,183,6.0,12.0,41,0.00,,,0.00,489.000000,,2013-12-29 21:02:00,
2013-12-29 14:11:00,40.0,18.0,-100.00,South,183,6.0,12.0,41,0.00,,,0.00,489.000000,,2013-12-29 21:11:00,
2013-12-29 14:12:00,39.0,18.0,-100.00,South,184,7.0,12.0,42,0.00,,,0.00,433.000000,,2013-12-29 21:12:00,
2013-12-29 14:43:00,39.0,18.0,-100.00,South,184,7.0,12.0,42,0.00,,,0.00,433.000000,,2013-12-29 21:43:00,
2013-12-29 14:53:00,39.0,18.0,-100.00,South,184,7.0,12.0,42,0.00,,,0.00,433.000000,,2013-12-29 21:53:00,
2013-12-29 15:03:00,39.0,18.0,-100.00,South,184,7.0,12.0,42,0.00,,,0.00,433.000000,,2013-12-29 22:03:00,
2013-12-29 15:42:00,35.0,16.0,-100.00,SW,227,6.0,11.0,46,0.00,,,0.00,261.000000,,2013-12-29 22:42:00,
2013-12-29 15:52:00,35.0,16.0,-100.00,SW,227,6.0,11.0,46,0.00,,,0.00,261.000000,,2013-12-29 22:52:00,
2013-12-29 16:02:00,35.0,16.0,-100.00,SW,227,6.0,11.0,46,0.00,,,0.00,261.000000,,2013-12-29 23:02:00,
2013-12-29 16:11:00,35.0,16.0,-100.00,SW,227,6.0,11.0,46,0.00,,,0.00,261.000000,,2013-12-29 23:11:00,
2013-12-29 16:42:00,32.0,17.0,-100.00,WSW,248,4.0,11.0,53,0.00,,,0.00,62.000000,,2013-12-29 23:42:00,
2013-12-29 16:53:00,32.0,17.0,-100.00,WSW,248,4.0,11.0,53,0.00,,,0.00,62.000000,,2013-12-29 23:53:00,
2013-12-29 17:02:00,32.0,17.0,-100.00,WSW,248,4.0,11.0,53,0.00,,,0.00,62.000000,,2013-12-30 00:02:00,
2013-12-29 17:11:00,32.0,17.0,-100.00,WSW,248,4.0,11.0,53,0.00,,,0.00,62.000000,,2013-12-30 00:11:00,
2013-12-29 17:42:00,27.0,16.0,-100.00,WSW,253,7.0,12.0,63,0.00,,,0.00,14.000000,,2013-12-30 00:42:00,
2013-12-29 17:53:00,27.0,16.0,-100.00,WSW,253,7.0,12.0,63,0.00,,,0.00,14.000000,,2013-12-30 00:53:00,
2013-12-29 18:01:00,27.0,16.0,-100.00,WSW,253,7.0,12.0,63,0.00,,,0.00,14.000000,,2013-12-30 01:01:00,
2013-12-29 18:11:00,27.0,16.0,-100.00,WSW,253,7.0,12.0,63,0.00,,,0.00,14.000000,,2013-12-30 01:11:00,
2013-12-29 18:42:00,26.0,16.0,-100.00,West,281,9.0,12.0,66,0.00,,,0.00,0.000000,,2013-12-30 01:42:00,
2013-12-29 18:52:00,26.0,16.0,-100.00,West,281,9.0,12.0,66,0.00,,,0.00,0.000000,,2013-12-30 01:52:00,
2013-12-29 19:01:00,26.0,16.0,-100.00,West,281,9.0,12.0,66,0.00,,,0.00,0.000000,,2013-12-30 02:01:00,
2013-12-29 19:11:00,26.0,16.0,-100.00,West,281,9.0,12.0,66,0.00,,,0.00,0.000000,,2013-12-30 02:11:00,
2013-12-29 19:42:00,25.0,16.0,-100.00,West,281,7.0,12.0,68,0.00,,,0.00,0.000000,,2013-12-30 02:42:00,
2013-12-29 19:52:00,25.0,16.0,-100.00,West,281,7.0,12.0,68,0.00,,,0.00,0.000000,,2013-12-30 02:52:00,
2013-12-29 20:01:00,25.0,16.0,-100.00,West,281,7.0,12.0,68,0.00,,,0.00,0.000000,,2013-12-30 03:01:00,
2013-12-29 20:11:00,25.0,16.0,-100.00,West,281,7.0,12.0,68,0.00,,,0.00,0.000000,,2013-12-30 03:11:00,
2013-12-29 20:12:00,25.0,15.0,-100.00,WSW,253,6.0,12.0,66,0.00,,,0.00,0.000000,,2013-12-30 03:12:00,
2013-12-29 20:43:00,25.0,15.0,-100.00,WSW,253,6.0,12.0,66,0.00,,,0.00,0.000000,,2013-12-30 03:43:00,
2013-12-29 20:54:00,25.0,15.0,-100.00,WSW,253,6.0,12.0,66,0.00,,,0.00,0.000000,,2013-12-30 03:54:00,
2013-12-29 21:03:00,25.0,15.0,-100.00,WSW,253,6.0,12.0,66,0.00,,,0.00,0.000000,,2013-12-30 04:03:00,
2013-12-29 21:12:00,25.0,15.0,-100.00,WSW,245,6.0,10.0,64,0.00,,,0.00,0.000000,,2013-12-30 04:12:00,
2013-12-29 21:43:00,25.0,15.0,-100.00,WSW,245,6.0,10.0,64,0.00,,,0.00,0.000000,,2013-12-30 04:43:00,
2013-12-29 21:52:00,25.0,15.0,-100.00,WSW,245,6.0,10.0,64,0.00,,,0.00,0.000000,,2013-12-30 04:52:00,
2013-12-29 22:02:00,25.0,15.0,-100.00,WSW,245,6.0,10.0,64,0.00,,,0.00,0.000000,,2013-12-30 05:02:00,
2013-12-29 22:12:00,24.0,13.0,-100.00,WNW,300,4.0,7.0,63,0.00,,,0.00,0.000000,,2013-12-30 05:12:00,
2013-12-29 22:43:00,24.0,13.0,-100.00,WNW,300,4.0,7.0,63,0.00,,,0.00,0.000000,,2013-12-30 05:43:00,
2013-12-29 22:53:00,24.0,13.0,-100.00,WNW,300,4.0,7.0,63,0.00,,,0.00,0.000000,,2013-12-30 05:53:00,
2013-12-29 23:02:00,24.0,13.0,-100.00,WNW,300,4.0,7.0,63,0.00,,,0.00,0.000000,,2013-12-30 06:02:00,
2013-12-29 23:43:00,22.0,16.0,-100.00,South,184,2.0,6.0,76,0.00,,,0.00,0.000000,,2013-12-30 06:43:00,
2013-12-29 23:53:00,22.0,16.0,-100.00,South,184,2.0,6.0,76,0.00,,,0.00,0.000000,,2013-12-30 06:53:00,